METAR Data
IDs: Format: Raw Decoded Include TAF

Data at: 0720 UTC 23 Oct 2018

METAR for:KEDJ (Bellefontaine Rgnl, OH, US)
Text:KEDJ 230655Z AUTO 22005KT 10SM CLR 05/03 A3008 RMK AO1
Temperature: 5.0°C ( 41°F)
Dewpoint: 3.0°C ( 37°F) [RH = 87%]
Pressure (altimeter):30.08 inches Hg (1018.7 mb)
Winds:from the SW (220 degrees) at 6 MPH (5 knots; 2.6 m/s)
Visibility:10 or more sm (16+ km)
Ceiling:at least 12,000 feet AGL
Clouds:sky clear below 12,000 feet AGL
QC Flag:automated observation with no human augmentation